This is the latest recevied weather packets stored in our database for station/object RK6MF-10. If no packets are shown the sender has not sent any weather packets the latest 10 day(s).
| Time | Temp. | Humidity | Pressure | Rain* | Wind** | Luminosity | Snow |
|---|---|---|---|---|---|---|---|
| 1777886266 | 15.56° C | 46% | 1010.1 hPa | - | - | - | - |
| 1777885366 | 15.56° C | 47% | 1010 hPa | - | - | - | - |
| 1777884466 | 14.44° C | 50% | 1010.3 hPa | - | - | - | - |
| 1777883566 | 14.44° C | 48% | 1010.1 hPa | - | - | - | - |
| 1777882666 | 13.89° C | 53% | 1010.3 hPa | - | - | - | - |
| 1777880866 | 13.33° C | 59% | 1010.3 hPa | - | - | - | - |
| 1777879966 | 12.78° C | 63% | 1010.3 hPa | - | - | - | - |
| 1777879066 | 12.78° C | 68% | 1010.5 hPa | - | - | - | - |
| 1777878166 | 12.22° C | 72% | 1010.4 hPa | - | - | - | - |
| 1777877266 | 11.67° C | 76% | 1010.5 hPa | - | - | - | - |
| 1777876366 | 11.11° C | 81% | 1010.5 hPa | - | - | - | - |
| 1777875466 | 10.56° C | 85% | 1010.5 hPa | - | - | - | - |
| 1777874565 | 10° C | 88% | 1010.5 hPa | - | - | - | - |
| 1777873665 | 9.44° C | 89% | 1010.5 hPa | - | - | - | - |
| 1777872765 | 9.44° C | 90% | 1010.3 hPa | - | - | - | - |
| 1777871865 | 8.89° C | 92% | 1010.2 hPa | - | - | - | - |
| 1777870965 | 8.33° C | 95% | 1010.2 hPa | - | - | - | - |
| 1777870065 | 8.33° C | 98% | 1010.3 hPa | - | - | - | - |
| 1777869165 | 7.78° C | 99% | 1010.2 hPa | - | - | - | - |
| 1777868265 | 8.33° C | 94% | 1010.3 hPa | - | - | - | - |
| 1777867365 | 7.22° C | 100% | 1010.2 hPa | - | - | - | - |
| 1777866463 | 6.11° C | 100% | 1010.1 hPa | - | - | - | - |
| 1777865563 | 5.56° C | 100% | 1010.1 hPa | - | - | - | - |
| 1777864663 | 5.56° C | 100% | 1010 hPa | - | - | - | - |
| 1777863763 | 5.56° C | 100% | 1010.1 hPa | - | - | - | - |
* Rain since midnight (hover to see other rain measurements)
** Current wind speed in m/s (hover to see current wind gust speed)